MMML/MXL METAR and TAF weather

Enter ICAO airport designator
Station Type Date Time Source
MMML METAR 2019/02/23 22:46 UTC NOAA

MMML 232246Z 00000KT 10SM SKC 17/M10 A3026


Station Type Date Time Source
MMML Decoded METAR 2019/02/23 22:46 UTC NOAA

Mexicali International Airport , Mexico (MMML) 32-38N 117-00W
Feb 23, 2019 - 05:46 PM EST / 2019.02.23 2246 UTC
Wind: Calm:0
Visibility: 10 mile(s):0
Sky conditions: clear
Temperature: 62 F (17 C)
Dew Point: 14 F (-10 C)
Relative Humidity: 14%
Pressure (altimeter): 30.26 in. Hg (1024 hPa)
ob: MMML 232246Z 00000KT 10SM SKC 17/M10 A3026
cycle: 23

Station Type Date Time Source
MMML TAF 2019/02/23 18:54 UTC NOAA

TAF MMML 231651Z 2318/2418 18005KT P6SM SKC
BECMG 2320/2321 14012KT
FM240200 14005KT P6SM SCT250
BECMG 2405/2406 00000KT
FM241200 32005KT P6SM BKN250


Example: see airport list